sensor_id;sensor_type;location;lat;lon;timestamp;pressure;altitude;pressure_sealevel;temperature;humidity
23867;BME280;12114;53.404;-1.502;2023-11-21T00:00:40;100943.13;;;11.05;100.00
23867;BME280;12114;53.404;-1.502;2023-11-21T00:03:24;100951.00;;;11.15;100.00
23867;BME280;12114;53.404;-1.502;2023-11-21T00:06:08;100955.28;;;11.13;100.00
23867;BME280;12114;53.404;-1.502;2023-11-21T00:08:52;100970.09;;;11.17;100.00
23867;BME280;12114;53.404;-1.502;2023-11-21T00:11:36;100975.09;;;11.11;100.00
23867;BME280;12114;53.404;-1.502;2023-11-21T00:14:21;100983.56;;;11.03;100.00
23867;BME280;12114;53.404;-1.502;2023-11-21T00:17:06;100981.81;;;11.10;100.00
23867;BME280;12114;53.404;-1.502;2023-11-21T00:19:50;100978.81;;;11.15;100.00
23867;BME280;12114;53.404;-1.502;2023-11-21T00:22:36;100976.63;;;10.96;100.00
23867;BME280;12114;53.404;-1.502;2023-11-21T00:25:19;100997.13;;;11.04;100.00
23867;BME280;12114;53.404;-1.502;2023-11-21T00:28:04;100999.78;;;11.01;100.00
23867;BME280;12114;53.404;-1.502;2023-11-21T00:30:47;101009.16;;;11.08;100.00
23867;BME280;12114;53.404;-1.502;2023-11-21T00:33:32;101011.84;;;11.05;100.00
23867;BME280;12114;53.404;-1.502;2023-11-21T00:36:15;101024.91;;;10.92;100.00
23867;BME280;12114;53.404;-1.502;2023-11-21T00:39:00;101018.44;;;11.00;100.00
23867;BME280;12114;53.404;-1.502;2023-11-21T00:41:47;101014.16;;;11.03;100.00
23867;BME280;12114;53.404;-1.502;2023-11-21T00:44:32;101023.31;;;11.03;100.00
23867;BME280;12114;53.404;-1.502;2023-11-21T00:47:17;101017.25;;;10.89;100.00
23867;BME280;12114;53.404;-1.502;2023-11-21T00:50:08;101018.91;;;11.02;100.00
23867;BME280;12114;53.404;-1.502;2023-11-21T00:52:55;101023.66;;;10.89;100.00
23867;BME280;12114;53.404;-1.502;2023-11-21T00:55:40;101022.00;;;11.01;100.00
23867;BME280;12114;53.404;-1.502;2023-11-21T00:58:24;101011.25;;;10.99;100.00
23867;BME280;12114;53.404;-1.502;2023-11-21T01:01:09;101017.97;;;10.86;100.00
23867;BME280;12114;53.404;-1.502;2023-11-21T01:03:53;101029.88;;;10.74;100.00
23867;BME280;12114;53.404;-1.502;2023-11-21T01:06:38;101030.81;;;10.78;100.00
23867;BME280;12114;53.404;-1.502;2023-11-21T01:09:31;101042.63;;;10.75;100.00
23867;BME280;12114;53.404;-1.502;2023-11-21T01:12:15;101037.66;;;10.81;100.00
23867;BME280;12114;53.404;-1.502;2023-11-21T01:14:59;101045.41;;;10.75;100.00
23867;BME280;12114;53.404;-1.502;2023-11-21T01:17:44;101055.03;;;10.78;100.00
23867;BME280;12114;53.404;-1.502;2023-11-21T01:20:28;101043.09;;;10.77;100.00
23867;BME280;12114;53.404;-1.502;2023-11-21T01:23:13;101049.91;;;10.80;100.00
23867;BME280;12114;53.404;-1.502;2023-11-21T01:25:57;101055.84;;;10.78;100.00
23867;BME280;12114;53.404;-1.502;2023-11-21T01:28:41;101064.38;;;10.73;100.00
23867;BME280;12114;53.404;-1.502;2023-11-21T01:31:26;101062.41;;;10.74;100.00
23867;BME280;12114;53.404;-1.502;2023-11-21T01:34:13;101052.94;;;10.75;100.00
23867;BME280;12114;53.404;-1.502;2023-11-21T01:36:57;101070.88;;;10.77;100.00
23867;BME280;12114;53.404;-1.502;2023-11-21T01:39:41;101074.59;;;10.81;100.00
23867;BME280;12114;53.404;-1.502;2023-11-21T01:42:25;101074.47;;;10.78;100.00
23867;BME280;12114;53.404;-1.502;2023-11-21T01:45:10;101077.84;;;10.83;100.00
23867;BME280;12114;53.404;-1.502;2023-11-21T01:47:56;101096.16;;;10.84;100.00
23867;BME280;12114;53.404;-1.502;2023-11-21T01:50:41;101094.97;;;10.85;100.00
23867;BME280;12114;53.404;-1.502;2023-11-21T01:53:25;101093.72;;;10.83;100.00
23867;BME280;12114;53.404;-1.502;2023-11-21T01:56:10;101097.19;;;10.80;100.00
23867;BME280;12114;53.404;-1.502;2023-11-21T01:58:54;101101.47;;;10.77;100.00
23867;BME280;12114;53.404;-1.502;2023-11-21T02:01:38;101102.28;;;10.78;100.00
23867;BME280;12114;53.404;-1.502;2023-11-21T02:04:22;101110.16;;;10.76;100.00
23867;BME280;12114;53.404;-1.502;2023-11-21T02:07:06;101109.66;;;10.74;100.00
23867;BME280;12114;53.404;-1.502;2023-11-21T02:09:50;101094.59;;;10.63;100.00
23867;BME280;12114;53.404;-1.502;2023-11-21T02:12:35;101101.09;;;10.67;100.00
23867;BME280;12114;53.404;-1.502;2023-11-21T02:15:19;101098.69;;;10.77;100.00
23867;BME280;12114;53.404;-1.502;2023-11-21T02:18:07;101097.03;;;10.76;100.00
23867;BME280;12114;53.404;-1.502;2023-11-21T02:20:53;101098.34;;;10.79;100.00
23867;BME280;12114;53.404;-1.502;2023-11-21T02:23:37;101113.53;;;10.81;100.00
23867;BME280;12114;53.404;-1.502;2023-11-21T02:26:25;101121.72;;;10.78;100.00
23867;BME280;12114;53.404;-1.502;2023-11-21T02:29:10;101113.41;;;10.78;100.00
23867;BME280;12114;53.404;-1.502;2023-11-21T02:31:55;101127.28;;;10.78;100.00
23867;BME280;12114;53.404;-1.502;2023-11-21T02:34:40;101111.63;;;10.73;100.00
23867;BME280;12114;53.404;-1.502;2023-11-21T02:37:24;101110.63;;;10.78;100.00
23867;BME280;12114;53.404;-1.502;2023-11-21T02:40:09;101116.50;;;10.76;100.00
23867;BME280;12114;53.404;-1.502;2023-11-21T02:42:56;101106.19;;;10.77;100.00
23867;BME280;12114;53.404;-1.502;2023-11-21T02:45:42;101110.25;;;10.79;100.00
23867;BME280;12114;53.404;-1.502;2023-11-21T02:48:27;101109.66;;;10.74;100.00
23867;BME280;12114;53.404;-1.502;2023-11-21T02:51:11;101116.72;;;10.71;100.00
23867;BME280;12114;53.404;-1.502;2023-11-21T02:53:58;101108.50;;;10.63;100.00
23867;BME280;12114;53.404;-1.502;2023-11-21T02:56:42;101116.97;;;10.66;100.00
23867;BME280;12114;53.404;-1.502;2023-11-21T02:59:26;101123.09;;;10.72;100.00
23867;BME280;12114;53.404;-1.502;2023-11-21T03:02:10;101130.41;;;10.76;100.00
23867;BME280;12114;53.404;-1.502;2023-11-21T03:04:54;101121.88;;;10.81;100.00
23867;BME280;12114;53.404;-1.502;2023-11-21T03:07:41;101131.81;;;10.82;100.00
23867;BME280;12114;53.404;-1.502;2023-11-21T03:10:25;101133.91;;;10.85;100.00
23867;BME280;12114;53.404;-1.502;2023-11-21T03:13:09;101132.84;;;10.78;100.00
23867;BME280;12114;53.404;-1.502;2023-11-21T03:15:54;101129.47;;;10.72;100.00
23867;BME280;12114;53.404;-1.502;2023-11-21T03:18:39;101137.13;;;10.75;100.00
23867;BME280;12114;53.404;-1.502;2023-11-21T03:21:23;101141.53;;;10.76;100.00
23867;BME280;12114;53.404;-1.502;2023-11-21T03:24:10;101147.69;;;10.82;100.00
23867;BME280;12114;53.404;-1.502;2023-11-21T03:26:55;101140.63;;;10.84;100.00
23867;BME280;12114;53.404;-1.502;2023-11-21T03:29:40;101137.84;;;10.84;100.00
23867;BME280;12114;53.404;-1.502;2023-11-21T03:32:24;101140.63;;;10.84;100.00
23867;BME280;12114;53.404;-1.502;2023-11-21T03:35:08;101141.22;;;10.90;100.00
23867;BME280;12114;53.404;-1.502;2023-11-21T03:37:52;101128.28;;;10.94;100.00
23867;BME280;12114;53.404;-1.502;2023-11-21T03:40:36;101141.56;;;10.88;100.00
23867;BME280;12114;53.404;-1.502;2023-11-21T03:43:21;101148.97;;;10.84;100.00
23867;BME280;12114;53.404;-1.502;2023-11-21T03:46:05;101154.41;;;10.81;100.00
23867;BME280;12114;53.404;-1.502;2023-11-21T03:48:49;101163.69;;;10.85;100.00
23867;BME280;12114;53.404;-1.502;2023-11-21T03:51:33;101165.66;;;10.84;100.00
23867;BME280;12114;53.404;-1.502;2023-11-21T03:54:18;101177.16;;;10.95;100.00
23867;BME280;12114;53.404;-1.502;2023-11-21T03:57:02;101178.19;;;10.90;100.00
23867;BME280;12114;53.404;-1.502;2023-11-21T03:59:47;101187.53;;;10.86;100.00
23867;BME280;12114;53.404;-1.502;2023-11-21T04:02:31;101181.06;;;10.82;100.00
23867;BME280;12114;53.404;-1.502;2023-11-21T04:05:16;101196.56;;;10.83;100.00
23867;BME280;12114;53.404;-1.502;2023-11-21T04:07:59;101196.91;;;10.81;100.00
23867;BME280;12114;53.404;-1.502;2023-11-21T04:10:43;101199.00;;;10.84;100.00
23867;BME280;12114;53.404;-1.502;2023-11-21T04:13:28;101223.38;;;10.67;100.00
23867;BME280;12114;53.404;-1.502;2023-11-21T04:16:12;101225.25;;;10.75;100.00
23867;BME280;12114;53.404;-1.502;2023-11-21T04:18:56;101226.50;;;10.65;100.00
23867;BME280;12114;53.404;-1.502;2023-11-21T04:21:41;101238.41;;;10.66;100.00
23867;BME280;12114;53.404;-1.502;2023-11-21T04:24:26;101251.56;;;10.57;100.00
23867;BME280;12114;53.404;-1.502;2023-11-21T04:27:10;101260.19;;;10.64;100.00
23867;BME280;12114;53.404;-1.502;2023-11-21T04:29:54;101263.50;;;10.57;100.00
23867;BME280;12114;53.404;-1.502;2023-11-21T04:32:38;101267.09;;;10.58;100.00
23867;BME280;12114;53.404;-1.502;2023-11-21T04:35:23;101272.69;;;10.49;100.00
23867;BME280;12114;53.404;-1.502;2023-11-21T04:38:07;101288.69;;;10.52;100.00
23867;BME280;12114;53.404;-1.502;2023-11-21T04:40:50;101313.03;;;10.55;100.00
23867;BME280;12114;53.404;-1.502;2023-11-21T04:43:35;101309.03;;;10.44;100.00
23867;BME280;12114;53.404;-1.502;2023-11-21T04:46:18;101311.81;;;10.44;100.00
23867;BME280;12114;53.404;-1.502;2023-11-21T04:49:05;101316.31;;;10.28;100.00
23867;BME280;12114;53.404;-1.502;2023-11-21T04:51:49;101329.34;;;10.36;100.00
23867;BME280;12114;53.404;-1.502;2023-11-21T04:54:33;101337.00;;;10.39;100.00
23867;BME280;12114;53.404;-1.502;2023-11-21T04:57:17;101338.97;;;10.38;100.00
23867;BME280;12114;53.404;-1.502;2023-11-21T05:00:02;101342.41;;;10.35;100.00
23867;BME280;12114;53.404;-1.502;2023-11-21T05:02:49;101349.94;;;10.35;100.00
23867;BME280;12114;53.404;-1.502;2023-11-21T05:05:33;101356.59;;;10.43;100.00
23867;BME280;12114;53.404;-1.502;2023-11-21T05:08:17;101357.28;;;10.31;100.00
23867;BME280;12114;53.404;-1.502;2023-11-21T05:11:02;101355.50;;;10.35;100.00
23867;BME280;12114;53.404;-1.502;2023-11-21T05:13:46;101357.13;;;10.27;100.00
23867;BME280;12114;53.404;-1.502;2023-11-21T05:16:30;101369.06;;;10.36;100.00
23867;BME280;12114;53.404;-1.502;2023-11-21T05:19:15;101365.97;;;10.29;100.00
23867;BME280;12114;53.404;-1.502;2023-11-21T05:21:59;101379.66;;;10.34;100.00
23867;BME280;12114;53.404;-1.502;2023-11-21T05:24:44;101383.78;;;10.28;100.00
23867;BME280;12114;53.404;-1.502;2023-11-21T05:27:28;101384.56;;;10.37;100.00
23867;BME280;12114;53.404;-1.502;2023-11-21T05:30:13;101397.47;;;10.42;100.00
23867;BME280;12114;53.404;-1.502;2023-11-21T05:32:57;101399.63;;;10.36;100.00
23867;BME280;12114;53.404;-1.502;2023-11-21T05:35:41;101400.41;;;10.37;100.00
23867;BME280;12114;53.404;-1.502;2023-11-21T05:38:25;101400.72;;;10.44;100.00
23867;BME280;12114;53.404;-1.502;2023-11-21T05:41:13;101400.72;;;10.44;100.00
23867;BME280;12114;53.404;-1.502;2023-11-21T05:43:57;101414.09;;;10.51;100.00
23867;BME280;12114;53.404;-1.502;2023-11-21T05:46:41;101414.44;;;10.40;100.00
23867;BME280;12114;53.404;-1.502;2023-11-21T05:49:27;101426.22;;;10.37;100.00
23867;BME280;12114;53.404;-1.502;2023-11-21T05:52:11;101440.63;;;10.39;100.00
23867;BME280;12114;53.404;-1.502;2023-11-21T05:54:55;101442.75;;;10.34;100.00
23867;BME280;12114;53.404;-1.502;2023-11-21T05:57:40;101466.91;;;10.42;100.00
23867;BME280;12114;53.404;-1.502;2023-11-21T06:00:25;101453.69;;;10.39;100.00
23867;BME280;12114;53.404;-1.502;2023-11-21T06:03:11;101468.06;;;10.41;100.00
23867;BME280;12114;53.404;-1.502;2023-11-21T06:05:55;101461.19;;;10.38;100.00
23867;BME280;12114;53.404;-1.502;2023-11-21T06:08:40;101475.59;;;10.32;100.00
23867;BME280;12114;53.404;-1.502;2023-11-21T06:11:23;101474.44;;;10.41;100.00
23867;BME280;12114;53.404;-1.502;2023-11-21T06:14:08;101481.09;;;10.49;100.00
23867;BME280;12114;53.404;-1.502;2023-11-21T06:16:53;101490.59;;;10.48;100.00
23867;BME280;12114;53.404;-1.502;2023-11-21T06:19:37;101498.91;;;10.57;100.00
23867;BME280;12114;53.404;-1.502;2023-11-21T06:22:21;101498.31;;;10.43;100.00
23867;BME280;12114;53.404;-1.502;2023-11-21T06:25:06;101501.19;;;10.46;100.00
23867;BME280;12114;53.404;-1.502;2023-11-21T06:27:51;101516.53;;;10.52;100.00
23867;BME280;12114;53.404;-1.502;2023-11-21T06:30:37;101522.97;;;10.44;100.00
23867;BME280;12114;53.404;-1.502;2023-11-21T06:33:21;101534.56;;;10.37;100.00
23867;BME280;12114;53.404;-1.502;2023-11-21T06:36:06;101543.41;;;10.31;100.00
23867;BME280;12114;53.404;-1.502;2023-11-21T06:38:50;101534.41;;;10.34;100.00
23867;BME280;12114;53.404;-1.502;2023-11-21T06:41:34;101552.56;;;10.31;100.00
23867;BME280;12114;53.404;-1.502;2023-11-21T06:44:18;101544.88;;;10.28;100.00
23867;BME280;12114;53.404;-1.502;2023-11-21T06:47:04;101569.56;;;10.30;100.00
23867;BME280;12114;53.404;-1.502;2023-11-21T06:49:51;101573.00;;;10.27;100.00
23867;BME280;12114;53.404;-1.502;2023-11-21T06:52:36;101568.78;;;10.21;100.00
23867;BME280;12114;53.404;-1.502;2023-11-21T06:55:20;101581.00;;;10.28;100.00
23867;BME280;12114;53.404;-1.502;2023-11-21T06:58:04;101590.97;;;10.29;100.00
23867;BME280;12114;53.404;-1.502;2023-11-21T07:00:49;101602.41;;;10.19;100.00
23867;BME280;12114;53.404;-1.502;2023-11-21T07:03:33;101608.75;;;10.11;100.00
23867;BME280;12114;53.404;-1.502;2023-11-21T07:06:18;101629.69;;;10.26;100.00
23867;BME280;12114;53.404;-1.502;2023-11-21T07:09:02;101616.63;;;10.18;100.00
23867;BME280;12114;53.404;-1.502;2023-11-21T07:11:47;101632.78;;;10.16;100.00
23867;BME280;12114;53.404;-1.502;2023-11-21T07:14:32;101653.72;;;10.22;100.00
23867;BME280;12114;53.404;-1.502;2023-11-21T07:17:16;101651.09;;;10.17;100.00
23867;BME280;12114;53.404;-1.502;2023-11-21T07:20:02;101667.06;;;10.11;100.00
23867;BME280;12114;53.404;-1.502;2023-11-21T07:22:46;101672.13;;;10.09;100.00
23867;BME280;12114;53.404;-1.502;2023-11-21T07:25:30;101679.53;;;10.22;100.00
23867;BME280;12114;53.404;-1.502;2023-11-21T07:28:17;101682.66;;;10.21;100.00
23867;BME280;12114;53.404;-1.502;2023-11-21T07:31:01;101695.19;;;10.18;100.00
23867;BME280;12114;53.404;-1.502;2023-11-21T07:33:47;101689.81;;;10.30;100.00
23867;BME280;12114;53.404;-1.502;2023-11-21T07:36:31;101690.44;;;10.10;100.00
23867;BME280;12114;53.404;-1.502;2023-11-21T07:39:15;101689.81;;;10.13;100.00
23867;BME280;12114;53.404;-1.502;2023-11-21T07:42:00;101683.56;;;10.08;100.00
23867;BME280;12114;53.404;-1.502;2023-11-21T07:44:44;101695.00;;;10.06;100.00
23867;BME280;12114;53.404;-1.502;2023-11-21T07:47:30;101704.97;;;10.07;100.00
23867;BME280;12114;53.404;-1.502;2023-11-21T07:50:14;101719.66;;;10.08;100.00
23867;BME280;12114;53.404;-1.502;2023-11-21T07:53:01;101724.06;;;10.00;100.00
23867;BME280;12114;53.404;-1.502;2023-11-21T07:55:49;101730.09;;;9.94;100.00
23867;BME280;12114;53.404;-1.502;2023-11-21T07:58:33;101743.81;;;9.99;100.00
23867;BME280;12114;53.404;-1.502;2023-11-21T08:01:17;101756.91;;;10.07;100.00
23867;BME280;12114;53.404;-1.502;2023-11-21T08:04:01;101765.41;;;10.02;100.00
23867;BME280;12114;53.404;-1.502;2023-11-21T08:06:47;101764.06;;;9.91;100.00
23867;BME280;12114;53.404;-1.502;2023-11-21T08:09:31;101775.69;;;10.01;100.00
23867;BME280;12114;53.404;-1.502;2023-11-21T08:12:15;101776.59;;;9.88;100.00
23867;BME280;12114;53.404;-1.502;2023-11-21T08:14:59;101782.16;;;9.88;100.00
23867;BME280;12114;53.404;-1.502;2023-11-21T08:17:44;101789.31;;;9.80;100.00
23867;BME280;12114;53.404;-1.502;2023-11-21T08:20:31;101791.75;;;9.82;100.00
23867;BME280;12114;53.404;-1.502;2023-11-21T08:23:15;101796.66;;;9.76;100.00
23867;BME280;12114;53.404;-1.502;2023-11-21T08:26:04;101789.31;;;9.80;100.00
23867;BME280;12114;53.404;-1.502;2023-11-21T08:28:52;101789.84;;;9.91;100.00
23867;BME280;12114;53.404;-1.502;2023-11-21T08:31:43;101792.13;;;9.89;100.00
23867;BME280;12114;53.404;-1.502;2023-11-21T08:34:30;101801.59;;;9.88;100.00
23867;BME280;12114;53.404;-1.502;2023-11-21T08:37:15;101801.47;;;9.93;100.00
23867;BME280;12114;53.404;-1.502;2023-11-21T08:39:59;101801.59;;;9.88;100.00
23867;BME280;12114;53.404;-1.502;2023-11-21T08:42:43;101801.13;;;9.95;100.00
23867;BME280;12114;53.404;-1.502;2023-11-21T08:45:30;101793.97;;;9.94;100.00
23867;BME280;12114;53.404;-1.502;2023-11-21T08:48:14;101803.91;;;9.95;100.00
23867;BME280;12114;53.404;-1.502;2023-11-21T08:50:59;101806.00;;;9.89;100.00
23867;BME280;12114;53.404;-1.502;2023-11-21T08:53:44;101818.63;;;9.64;100.00
23867;BME280;12114;53.404;-1.502;2023-11-21T08:56:28;101822.44;;;9.77;100.00
23867;BME280;12114;53.404;-1.502;2023-11-21T08:59:13;101843.97;;;9.71;100.00
23867;BME280;12114;53.404;-1.502;2023-11-21T09:01:58;101832.53;;;9.73;100.00
23867;BME280;12114;53.404;-1.502;2023-11-21T09:04:44;101830.75;;;9.68;100.00
23867;BME280;12114;53.404;-1.502;2023-11-21T09:07:29;101847.06;;;9.70;100.00
23867;BME280;12114;53.404;-1.502;2023-11-21T09:10:14;101847.25;;;9.73;100.00
23867;BME280;12114;53.404;-1.502;2023-11-21T09:12:58;101852.31;;;9.49;100.00
23867;BME280;12114;53.404;-1.502;2023-11-21T09:15:43;101842.09;;;9.58;100.00
23867;BME280;12114;53.404;-1.502;2023-11-21T09:18:31;101864.25;;;9.50;100.00
23867;BME280;12114;53.404;-1.502;2023-11-21T09:21:15;101859.28;;;9.60;100.00
23867;BME280;12114;53.404;-1.502;2023-11-21T09:23:59;101848.09;;;9.52;100.00
23867;BME280;12114;53.404;-1.502;2023-11-21T09:26:43;101852.50;;;9.75;100.00
23867;BME280;12114;53.404;-1.502;2023-11-21T09:29:27;101848.16;;;9.91;100.00
23867;BME280;12114;53.404;-1.502;2023-11-21T09:32:11;101852.75;;;9.96;100.00
23867;BME280;12114;53.404;-1.502;2023-11-21T09:34:58;101854.56;;;10.00;100.00
23867;BME280;12114;53.404;-1.502;2023-11-21T09:37:43;101856.88;;;10.07;100.00
23867;BME280;12114;53.404;-1.502;2023-11-21T09:40:28;101859.66;;;10.07;100.00
23867;BME280;12114;53.404;-1.502;2023-11-21T09:43:18;101862.75;;;10.05;100.00
23867;BME280;12114;53.404;-1.502;2023-11-21T09:46:06;101862.44;;;10.07;100.00
23867;BME280;12114;53.404;-1.502;2023-11-21T09:48:54;101867.47;;;9.96;100.00
23867;BME280;12114;53.404;-1.502;2023-11-21T09:51:42;101858.69;;;10.11;100.00
23867;BME280;12114;53.404;-1.502;2023-11-21T09:54:27;101855.66;;;10.21;100.00
23867;BME280;12114;53.404;-1.502;2023-11-21T09:57:13;101860.72;;;10.19;100.00
23867;BME280;12114;53.404;-1.502;2023-11-21T10:00:00;101872.00;;;10.23;100.00
23867;BME280;12114;53.404;-1.502;2023-11-21T10:02:49;101870.94;;;10.10;100.00
23867;BME280;12114;53.404;-1.502;2023-11-21T10:05:33;101871.84;;;10.28;100.00
23867;BME280;12114;53.404;-1.502;2023-11-21T10:08:22;101887.56;;;10.32;100.00
23867;BME280;12114;53.404;-1.502;2023-11-21T10:11:08;101884.66;;;10.46;100.00
23867;BME280;12114;53.404;-1.502;2023-11-21T10:13:55;101889.22;;;10.33;100.00
23867;BME280;12114;53.404;-1.502;2023-11-21T10:16:44;101870.38;;;10.22;100.00
23867;BME280;12114;53.404;-1.502;2023-11-21T10:19:31;101864.16;;;10.25;100.00
23867;BME280;12114;53.404;-1.502;2023-11-21T10:22:16;101871.38;;;10.26;100.00
23867;BME280;12114;53.404;-1.502;2023-11-21T10:25:01;101873.53;;;10.37;100.00
23867;BME280;12114;53.404;-1.502;2023-11-21T10:27:47;101880.38;;;10.40;100.00
23867;BME280;12114;53.404;-1.502;2023-11-21T10:30:35;101867.66;;;10.39;100.00
23867;BME280;12114;53.404;-1.502;2023-11-21T10:33:30;101882.88;;;10.41;100.00
23867;BME280;12114;53.404;-1.502;2023-11-21T10:36:24;101885.34;;;10.52;100.00
23867;BME280;12114;53.404;-1.502;2023-11-21T10:39:20;101895.19;;;10.58;100.00
23867;BME280;12114;53.404;-1.502;2023-11-21T10:42:04;101890.25;;;10.55;100.00
23867;BME280;12114;53.404;-1.502;2023-11-21T10:44:48;101890.41;;;10.58;100.00
23867;BME280;12114;53.404;-1.502;2023-11-21T10:47:32;101891.84;;;10.38;100.00
23867;BME280;12114;53.404;-1.502;2023-11-21T10:50:18;101892.94;;;10.29;100.00
23867;BME280;12114;53.404;-1.502;2023-11-21T10:53:03;101894.25;;;10.31;100.00
23867;BME280;12114;53.404;-1.502;2023-11-21T10:55:48;101907.66;;;10.29;100.00
23867;BME280;12114;53.404;-1.502;2023-11-21T10:58:32;101917.75;;;10.25;100.00
23867;BME280;12114;53.404;-1.502;2023-11-21T11:01:18;101909.78;;;10.32;100.00
23867;BME280;12114;53.404;-1.502;2023-11-21T11:04:04;101911.94;;;10.35;100.00
23867;BME280;12114;53.404;-1.502;2023-11-21T11:07:03;101896.91;;;10.36;100.00
23867;BME280;12114;53.404;-1.502;2023-11-21T11:09:49;101902.66;;;10.49;100.00
23867;BME280;12114;53.404;-1.502;2023-11-21T11:12:33;101903.97;;;10.51;100.00
23867;BME280;12114;53.404;-1.502;2023-11-21T11:15:20;101908.91;;;10.63;100.00
23867;BME280;12114;53.404;-1.502;2023-11-21T11:18:06;101910.38;;;10.60;100.00
23867;BME280;12114;53.404;-1.502;2023-11-21T11:20:53;101907.78;;;10.64;100.00
23867;BME280;12114;53.404;-1.502;2023-11-21T11:24:17;101916.47;;;10.79;100.00
23867;BME280;12114;53.404;-1.502;2023-11-21T11:27:20;101914.69;;;11.01;100.00
23867;BME280;12114;53.404;-1.502;2023-11-21T11:33:24;101903.25;;;10.93;100.00
23867;BME280;12114;53.404;-1.502;2023-11-21T11:36:25;101904.09;;;10.94;100.00
23867;BME280;12114;53.404;-1.502;2023-11-21T11:42:21;101909.75;;;10.72;100.00
23867;BME280;12114;53.404;-1.502;2023-11-21T11:45:17;101920.84;;;10.63;100.00
23867;BME280;12114;53.404;-1.502;2023-11-21T11:48:05;101919.19;;;10.54;100.00
23867;BME280;12114;53.404;-1.502;2023-11-21T11:51:12;101912.50;;;10.55;100.00
23867;BME280;12114;53.404;-1.502;2023-11-21T11:53:58;101902.69;;;10.57;100.00
23867;BME280;12114;53.404;-1.502;2023-11-21T11:56:47;101917.28;;;10.71;100.00
23867;BME280;12114;53.404;-1.502;2023-11-21T12:03:00;101930.53;;;10.74;100.00
23867;BME280;12114;53.404;-1.502;2023-11-21T12:05:49;101918.41;;;10.70;100.00
23867;BME280;12114;53.404;-1.502;2023-11-21T12:08:36;101917.09;;;10.76;100.00
23867;BME280;12114;53.404;-1.502;2023-11-21T12:11:21;101918.81;;;10.47;100.00
23867;BME280;12114;53.404;-1.502;2023-11-21T12:14:06;101907.44;;;10.65;100.00
23867;BME280;12114;53.404;-1.502;2023-11-21T12:16:50;101922.16;;;10.66;100.00
23867;BME280;12114;53.404;-1.502;2023-11-21T12:19:35;101921.34;;;10.74;100.00
23867;BME280;12114;53.404;-1.502;2023-11-21T12:22:19;101919.44;;;10.91;100.00
23867;BME280;12114;53.404;-1.502;2023-11-21T12:25:04;101923.22;;;11.04;100.00
23867;BME280;12114;53.404;-1.502;2023-11-21T12:27:50;101917.66;;;11.13;100.00
23867;BME280;12114;53.404;-1.502;2023-11-21T12:30:34;101925.53;;;11.36;100.00
23867;BME280;12114;53.404;-1.502;2023-11-21T12:33:21;101917.84;;;11.42;100.00
23867;BME280;12114;53.404;-1.502;2023-11-21T12:36:06;101919.28;;;11.57;100.00
23867;BME280;12114;53.404;-1.502;2023-11-21T12:38:54;101909.00;;;11.57;100.00
23867;BME280;12114;53.404;-1.502;2023-11-21T12:41:39;101921.75;;;11.67;100.00
23867;BME280;12114;53.404;-1.502;2023-11-21T12:44:23;101932.22;;;11.52;100.00
23867;BME280;12114;53.404;-1.502;2023-11-21T12:47:10;101946.50;;;11.42;100.00
23867;BME280;12114;53.404;-1.502;2023-11-21T12:49:57;101947.94;;;11.31;100.00
23867;BME280;12114;53.404;-1.502;2023-11-21T12:52:45;101958.41;;;11.26;100.00
23867;BME280;12114;53.404;-1.502;2023-11-21T12:55:34;101966.25;;;11.07;100.00
23867;BME280;12114;53.404;-1.502;2023-11-21T12:58:23;101967.06;;;10.98;100.00
23867;BME280;12114;53.404;-1.502;2023-11-21T13:01:09;101965.91;;;10.91;100.00
23867;BME280;12114;53.404;-1.502;2023-11-21T13:03:57;101971.63;;;10.94;100.00
23867;BME280;12114;53.404;-1.502;2023-11-21T13:06:42;101976.88;;;10.96;100.00
23867;BME280;12114;53.404;-1.502;2023-11-21T13:09:26;101976.03;;;10.95;100.00
23867;BME280;12114;53.404;-1.502;2023-11-21T13:12:11;101986.69;;;11.02;100.00
23867;BME280;12114;53.404;-1.502;2023-11-21T13:14:56;101994.38;;;10.96;100.00
23867;BME280;12114;53.404;-1.502;2023-11-21T13:17:40;102011.19;;;10.91;100.00
23867;BME280;12114;53.404;-1.502;2023-11-21T13:20:25;102013.19;;;10.91;100.00
23867;BME280;12114;53.404;-1.502;2023-11-21T13:23:10;102016.28;;;10.89;100.00
23867;BME280;12114;53.404;-1.502;2023-11-21T13:25:59;102019.66;;;10.78;100.00
23867;BME280;12114;53.404;-1.502;2023-11-21T13:28:47;102022.00;;;10.93;100.00
23867;BME280;12114;53.404;-1.502;2023-11-21T13:31:32;102017.91;;;10.90;100.00
23867;BME280;12114;53.404;-1.502;2023-11-21T13:34:18;102024.00;;;11.01;100.00
23867;BME280;12114;53.404;-1.502;2023-11-21T13:37:06;102032.09;;;10.80;100.00
23867;BME280;12114;53.404;-1.502;2023-11-21T13:39:51;102038.69;;;10.84;100.00
23867;BME280;12114;53.404;-1.502;2023-11-21T13:42:36;102046.66;;;10.77;100.00
23867;BME280;12114;53.404;-1.502;2023-11-21T13:45:21;102055.97;;;10.73;100.00
23867;BME280;12114;53.404;-1.502;2023-11-21T13:48:07;102056.31;;;10.80;100.00
23867;BME280;12114;53.404;-1.502;2023-11-21T13:50:54;102051.09;;;10.78;100.00
23867;BME280;12114;53.404;-1.502;2023-11-21T13:53:54;102044.91;;;10.90;100.00
23867;BME280;12114;53.404;-1.502;2023-11-21T13:56:38;102038.69;;;10.93;100.00
23867;BME280;12114;53.404;-1.502;2023-11-21T13:59:24;102040.56;;;11.06;100.00
23867;BME280;12114;53.404;-1.502;2023-11-21T14:02:14;102036.94;;;11.06;100.00
23867;BME280;12114;53.404;-1.502;2023-11-21T14:05:01;102035.44;;;11.00;100.00
23867;BME280;12114;53.404;-1.502;2023-11-21T14:07:52;102022.16;;;10.88;100.00
23867;BME280;12114;53.404;-1.502;2023-11-21T14:10:36;102015.41;;;10.80;100.00
23867;BME280;12114;53.404;-1.502;2023-11-21T14:13:23;102031.09;;;10.76;100.00